Time;durP1;ratioP1;P1;durP2;ratioP2;P2;SDS_P1;SDS_P2;PMS_P1;PMS_P2;Temp;Humidity;BMP_temperature;BMP_pressure;BME280_temperature;BME280_humidity;BME280_pressure;Samples;Min_cycle;Max_cycle;Signal;HPM_P1;HPM_P2
2021/03/07 00:02:09;;;;;;;4.40;4.00;;;24.60;47.00;;;;;;5093213;28;20447;-63
2021/03/07 00:04:36;;;;;;;4.30;4.00;;;24.60;47.00;;;;;;5093186;28;20444;-63
2021/03/07 00:07:02;;;;;;;4.77;4.47;;;24.60;46.90;;;;;;5094991;28;20442;-63
2021/03/07 00:09:29;;;;;;;5.03;4.63;;;24.60;46.90;;;;;;5097572;28;20443;-63
2021/03/07 00:11:56;;;;;;;4.23;3.93;;;24.60;46.90;;;;;;5097357;28;20801;-64
2021/03/07 00:14:22;;;;;;;4.63;4.27;;;24.60;47.00;;;;;;5097219;28;20439;-63
2021/03/07 00:16:48;;;;;;;3.90;3.67;;;24.50;46.90;;;;;;5097202;28;20440;-63
2021/03/07 00:19:15;;;;;;;4.70;4.33;;;24.50;47.00;;;;;;5097311;28;20787;-64
2021/03/07 00:21:41;;;;;;;4.77;4.37;;;24.50;46.90;;;;;;5097235;28;20450;-65
2021/03/07 00:24:08;;;;;;;5.10;4.70;;;24.50;47.00;;;;;;5096805;28;20442;-65
2021/03/07 00:26:35;;;;;;;5.10;4.60;;;24.60;47.10;;;;;;5097034;28;20436;-65
2021/03/07 00:29:02;;;;;;;4.80;4.40;;;24.50;46.90;;;;;;5096667;28;20536;-65
2021/03/07 00:31:28;;;;;;;5.00;4.50;;;24.50;46.90;;;;;;5096999;28;20461;-66
2021/03/07 00:33:54;;;;;;;5.10;4.60;;;24.50;46.90;;;;;;5096811;28;20446;-64
2021/03/07 00:36:20;;;;;;;4.37;4.10;;;24.50;46.80;;;;;;5096702;28;20435;-65
2021/03/07 00:38:52;;;;;;;4.10;3.80;;;24.50;47.10;;;;;;5096835;28;20593;-65
2021/03/07 00:41:18;;;;;;;4.63;4.27;;;24.50;46.70;;;;;;5096751;28;20787;-64
2021/03/07 00:43:46;;;;;;;4.40;4.10;;;24.50;46.90;;;;;;5096614;28;20438;-64
2021/03/07 00:46:12;;;;;;;4.93;4.53;;;24.50;46.80;;;;;;5096581;28;20442;-65
2021/03/07 00:48:38;;;;;;;4.70;4.30;;;24.50;46.60;;;;;;5096416;28;20491;-65
2021/03/07 00:51:05;;;;;;;4.53;4.13;;;24.50;46.70;;;;;;5096514;28;20458;-65
2021/03/07 00:53:31;;;;;;;4.67;4.37;;;24.50;47.00;;;;;;5096543;28;20447;-65
2021/03/07 00:55:57;;;;;;;4.43;4.13;;;24.50;46.60;;;;;;5096594;28;20469;-65
2021/03/07 00:58:24;;;;;;;4.70;4.30;;;24.50;46.70;;;;;;5096448;28;20470;-66
2021/03/07 01:00:51;;;;;;;4.97;4.33;;;24.50;46.80;;;;;;5096262;28;20447;-65
2021/03/07 01:03:17;;;;;;;4.37;4.07;;;24.50;46.80;;;;;;5096422;28;20446;-65
2021/03/07 01:05:44;;;;;;;4.90;4.50;;;24.50;46.70;;;;;;5096277;28;20443;-65
2021/03/07 01:08:10;;;;;;;4.40;4.10;;;24.50;46.80;;;;;;5096022;28;20494;-63
2021/03/07 01:10:38;;;;;;;4.60;4.30;;;24.50;46.70;;;;;;5096133;28;20435;-63
2021/03/07 01:13:06;;;;;;;4.20;3.90;;;24.50;47.00;;;;;;5096092;28;20498;-63
2021/03/07 01:15:33;;;;;;;4.47;4.17;;;24.50;46.80;;;;;;5095994;28;20968;-65
2021/03/07 01:18:01;;;;;;;4.40;4.10;;;24.50;46.70;;;;;;5095473;28;20515;-63
2021/03/07 01:20:28;;;;;;;4.03;3.73;;;24.50;46.70;;;;;;5095919;28;20434;-63
2021/03/07 01:22:55;;;;;;;3.80;3.50;;;24.40;46.80;;;;;;5095822;28;20443;-63
2021/03/07 01:25:22;;;;;;;4.83;4.53;;;24.40;46.80;;;;;;5095822;28;20799;-63
2021/03/07 01:27:49;;;;;;;5.50;5.10;;;24.50;46.70;;;;;;5095663;28;20486;-63
2021/03/07 01:30:17;;;;;;;4.20;3.90;;;24.50;46.70;;;;;;5095768;28;20438;-64
2021/03/07 01:32:43;;;;;;;4.20;3.90;;;24.50;46.70;;;;;;5095446;28;20496;-64
2021/03/07 01:35:12;;;;;;;4.47;4.07;;;24.50;46.70;;;;;;5095682;28;20452;-63
2021/03/07 01:37:39;;;;;;;4.77;4.37;;;24.50;46.70;;;;;;5095657;28;20444;-63
2021/03/07 01:40:07;;;;;;;4.27;3.97;;;24.50;46.90;;;;;;5095703;28;20514;-62
2021/03/07 01:42:34;;;;;;;4.00;3.70;;;24.50;47.00;;;;;;5095715;28;20751;-65
2021/03/07 01:45:00;;;;;;;5.27;4.93;;;24.50;46.70;;;;;;5095377;28;20450;-62
2021/03/07 01:47:31;;;;;;;4.60;4.30;;;24.40;46.70;;;;;;5095336;28;20475;-63
2021/03/07 01:49:58;;;;;;;4.17;3.83;;;24.40;46.60;;;;;;5095505;28;20518;-63
2021/03/07 01:52:25;;;;;;;4.73;4.33;;;24.40;46.50;;;;;;5095326;28;20439;-63
2021/03/07 01:54:52;;;;;;;4.80;4.40;;;24.40;47.10;;;;;;5095323;28;20449;-63
2021/03/07 01:57:21;;;;;;;4.50;4.17;;;24.50;46.50;;;;;;5095133;28;20467;-63
2021/03/07 01:59:49;;;;;;;4.27;3.97;;;24.40;46.40;;;;;;5095216;28;20456;-63
2021/03/07 02:02:15;;;;;;;4.37;4.07;;;24.40;46.40;;;;;;5095276;28;20775;-62
2021/03/07 02:04:42;;;;;;;4.60;4.30;;;24.40;46.50;;;;;;5094965;28;20439;-65
2021/03/07 02:07:08;;;;;;;4.77;4.47;;;24.50;46.50;;;;;;5094988;28;20798;-62
2021/03/07 02:09:35;;;;;;;4.93;4.53;;;24.40;46.40;;;;;;5095147;28;20439;-63
2021/03/07 02:12:03;;;;;;;4.70;4.37;;;24.40;46.50;;;;;;5094932;28;20432;-63
2021/03/07 02:14:32;;;;;;;5.37;4.97;;;24.50;46.50;;;;;;5094984;28;20442;-64
2021/03/07 02:17:00;;;;;;;4.13;3.83;;;24.50;46.60;;;;;;5094854;28;20434;-63
2021/03/07 02:19:31;;;;;;;5.27;4.87;;;24.40;46.50;;;;;;5094845;28;20435;-65
2021/03/07 02:21:59;;;;;;;3.80;3.50;;;24.40;46.40;;;;;;5094698;28;20442;-63
2021/03/07 02:24:29;;;;;;;4.67;4.37;;;24.40;46.40;;;;;;5094668;28;20806;-65
2021/03/07 02:26:55;;;;;;;4.77;4.37;;;24.40;46.50;;;;;;5094770;28;20443;-65
2021/03/07 02:29:23;;;;;;;4.70;4.40;;;24.40;46.40;;;;;;5093895;28;20835;-65
2021/03/07 02:31:52;;;;;;;4.23;3.93;;;24.40;46.50;;;;;;5094592;28;20443;-62
2021/03/07 02:34:25;;;;;;;4.30;4.00;;;24.40;46.40;;;;;;5094929;28;20434;-63
2021/03/07 02:36:53;;;;;;;4.57;4.27;;;24.40;46.50;;;;;;5094697;28;20447;-63
2021/03/07 02:39:24;;;;;;;4.60;4.20;;;24.40;46.40;;;;;;5094478;28;20448;-63
2021/03/07 02:41:55;;;;;;;3.63;3.43;;;24.40;46.30;;;;;;5094744;28;20818;-62
2021/03/07 02:44:24;;;;;;;4.63;4.33;;;24.40;46.40;;;;;;5094526;28;20451;-65
2021/03/07 02:46:52;;;;;;;4.27;3.93;;;24.40;46.40;;;;;;5094329;28;20434;-65
2021/03/07 02:49:19;;;;;;;4.53;4.13;;;24.40;46.40;;;;;;5094124;28;20490;-65
2021/03/07 02:51:48;;;;;;;4.40;4.10;;;24.40;46.40;;;;;;5094156;28;20455;-64
2021/03/07 02:54:18;;;;;;;4.03;3.73;;;24.40;46.30;;;;;;5094162;28;20941;-64
2021/03/07 02:56:48;;;;;;;4.23;3.93;;;24.40;46.30;;;;;;5094132;28;20478;-66
2021/03/07 02:59:16;;;;;;;4.63;4.33;;;24.40;46.80;;;;;;5094000;28;20515;-65
2021/03/07 03:01:43;;;;;;;3.90;3.67;;;24.50;46.30;;;;;;5094097;28;20536;-64
2021/03/07 03:04:12;;;;;;;4.50;4.20;;;24.40;46.30;;;;;;5093953;28;21018;-65
2021/03/07 03:06:42;;;;;;;4.50;4.20;;;24.40;46.50;;;;;;5094024;28;20442;-63
2021/03/07 03:09:11;;;;;;;4.63;4.33;;;24.40;46.40;;;;;;5093881;28;20490;-64
2021/03/07 03:11:41;;;;;;;4.20;3.90;;;24.40;46.20;;;;;;5093772;28;20446;-65
2021/03/07 03:14:08;;;;;;;4.67;4.27;;;24.40;46.30;;;;;;5093884;28;20435;-65
2021/03/07 03:16:36;;;;;;;4.63;4.23;;;24.40;46.40;;;;;;5094219;28;20489;-63
2021/03/07 03:19:07;;;;;;;4.40;4.10;;;24.40;46.30;;;;;;5093761;28;20493;-64
2021/03/07 03:21:33;;;;;;;4.37;4.07;;;24.40;46.40;;;;;;5093746;28;20509;-64
2021/03/07 03:24:00;;;;;;;5.07;4.67;;;24.40;46.30;;;;;;5093481;28;20451;-65
2021/03/07 03:26:26;;;;;;;3.70;3.50;;;24.40;46.30;;;;;;5093647;28;20831;-64
2021/03/07 03:28:54;;;;;;;4.30;4.00;;;24.50;46.30;;;;;;5093482;28;20513;-64
2021/03/07 03:31:21;;;;;;;3.83;3.63;;;24.40;46.30;;;;;;5093669;28;20438;-65
2021/03/07 03:33:48;;;;;;;4.20;3.83;;;24.40;46.20;;;;;;5093447;28;20443;-65
2021/03/07 03:36:15;;;;;;;3.37;3.13;;;24.50;46.20;;;;;;5093478;28;20798;-65
2021/03/07 03:38:46;;;;;;;4.03;3.73;;;24.40;46.30;;;;;;5093334;28;20437;-65
2021/03/07 03:41:14;;;;;;;3.53;3.33;;;24.40;46.20;;;;;;5093319;28;20493;-65
2021/03/07 03:43:42;;;;;;;3.60;3.40;;;24.40;46.30;;;;;;5093369;28;20438;-64
2021/03/07 03:46:10;;;;;;;3.70;3.50;;;24.50;46.40;;;;;;5093530;28;20786;-65
2021/03/07 03:48:40;;;;;;;3.83;3.63;;;24.40;46.20;;;;;;5093258;28;20529;-65
2021/03/07 03:51:09;;;;;;;3.93;3.63;;;24.50;46.20;;;;;;5093320;28;20439;-66
2021/03/07 03:53:36;;;;;;;3.93;3.63;;;24.50;46.20;;;;;;5093288;28;20439;-65
2021/03/07 03:56:03;;;;;;;4.50;4.20;;;24.50;46.20;;;;;;5093196;28;20485;-65
2021/03/07 03:58:33;;;;;;;4.00;3.70;;;24.40;46.20;;;;;;5093167;28;20540;-65
2021/03/07 04:01:02;;;;;;;3.80;3.57;;;24.40;46.70;;;;;;5093418;28;20443;-65
2021/03/07 04:03:28;;;;;;;3.60;3.30;;;24.40;46.10;;;;;;5092951;28;20443;-64
2021/03/07 04:05:56;;;;;;;3.50;3.30;;;24.50;46.10;;;;;;5093163;28;20933;-66
2021/03/07 04:08:24;;;;;;;3.77;3.53;;;24.40;46.10;;;;;;5093102;28;20490;-65
2021/03/07 04:10:51;;;;;;;3.30;3.10;;;24.40;46.00;;;;;;5093041;28;20443;-65
2021/03/07 04:13:20;;;;;;;4.20;3.90;;;24.50;46.20;;;;;;5093207;28;20481;-65
2021/03/07 04:15:46;;;;;;;3.33;3.13;;;24.40;46.10;;;;;;5092984;28;20454;-66
2021/03/07 04:18:15;;;;;;;3.43;3.23;;;24.40;46.20;;;;;;5093045;28;20442;-65
2021/03/07 04:20:43;;;;;;;4.00;3.70;;;24.40;46.10;;;;;;5093029;28;20439;-62
2021/03/07 04:23:10;;;;;;;3.37;3.17;;;24.40;46.10;;;;;;5092923;28;20439;-63
2021/03/07 04:25:38;;;;;;;3.57;3.30;;;24.40;46.20;;;;;;5093028;28;20856;-63
2021/03/07 04:28:05;;;;;;;3.33;3.13;;;24.40;46.20;;;;;;5092796;28;20485;-63
2021/03/07 04:30:32;;;;;;;4.00;3.73;;;24.40;46.00;;;;;;5092899;28;20962;-63
2021/03/07 04:32:59;;;;;;;3.70;3.50;;;24.40;46.10;;;;;;5092803;28;20445;-62
2021/03/07 04:35:25;;;;;;;3.27;3.07;;;24.40;46.20;;;;;;5093126;28;20923;-63
2021/03/07 04:37:52;;;;;;;3.63;3.43;;;24.40;46.00;;;;;;5092945;28;20443;-63
2021/03/07 04:40:18;;;;;;;3.70;3.40;;;24.40;45.90;;;;;;5092907;28;20449;-63
2021/03/07 04:42:46;;;;;;;3.77;2.87;;;24.40;45.90;;;;;;5092908;28;20449;-62
2021/03/07 04:45:14;;;;;;;3.47;2.90;;;24.40;45.90;;;;;;5092940;28;20446;-62
2021/03/07 04:47:42;;;;;;;3.60;3.40;;;24.40;46.10;;;;;;5092958;28;20479;-62
2021/03/07 04:50:09;;;;;;;2.73;2.53;;;24.40;46.00;;;;;;5092815;28;20447;-64
2021/03/07 04:52:35;;;;;;;3.80;3.60;;;24.40;46.00;;;;;;5093837;28;20442;-65
2021/03/07 04:55:02;;;;;;;3.30;3.10;;;24.40;46.00;;;;;;5096360;28;20930;-65
2021/03/07 04:57:29;;;;;;;3.50;3.30;;;24.40;45.90;;;;;;5096730;28;20857;-64
2021/03/07 04:59:56;;;;;;;3.30;3.10;;;24.40;45.90;;;;;;5096546;28;20437;-64
2021/03/07 05:02:22;;;;;;;3.70;3.50;;;24.40;45.80;;;;;;5096263;28;20443;-65
2021/03/07 05:04:48;;;;;;;3.30;3.10;;;24.40;45.80;;;;;;5096369;28;20444;-65
2021/03/07 05:07:15;;;;;;;3.50;3.30;;;24.40;45.90;;;;;;5096083;28;20438;-64
2021/03/07 05:09:41;;;;;;;3.40;3.20;;;24.40;45.90;;;;;;5096254;28;20451;-66
2021/03/07 05:12:07;;;;;;;3.30;3.10;;;24.40;45.90;;;;;;5096173;28;20446;-65
2021/03/07 05:14:34;;;;;;;3.20;3.00;;;24.40;45.90;;;;;;5096103;28;20443;-65
2021/03/07 05:17:01;;;;;;;3.33;3.13;;;24.40;45.90;;;;;;5096036;28;20794;-65
2021/03/07 05:19:27;;;;;;;3.27;3.07;;;24.40;45.90;;;;;;5096132;28;20450;-65
2021/03/07 05:21:53;;;;;;;3.13;2.93;;;24.40;45.90;;;;;;5095967;28;20566;-65
2021/03/07 05:24:20;;;;;;;3.73;3.53;;;24.40;46.00;;;;;;5095997;28;20829;-65
2021/03/07 05:26:47;;;;;;;3.47;3.27;;;24.40;45.90;;;;;;5095953;28;20439;-65
2021/03/07 05:29:13;;;;;;;3.03;2.83;;;24.40;46.00;;;;;;5095762;28;20494;-64
2021/03/07 05:31:39;;;;;;;3.47;3.27;;;24.40;45.80;;;;;;5095853;28;20447;-64
2021/03/07 05:34:06;;;;;;;3.23;3.03;;;24.40;46.00;;;;;;5095759;28;20435;-64
2021/03/07 05:36:33;;;;;;;3.70;3.50;;;24.40;45.90;;;;;;5095681;28;20470;-63
2021/03/07 05:38:59;;;;;;;2.90;2.70;;;24.40;46.00;;;;;;5095671;28;20438;-64
2021/03/07 05:41:25;;;;;;;3.23;3.03;;;24.40;46.00;;;;;;5096071;28;20794;-65
2021/03/07 05:43:52;;;;;;;2.90;2.70;;;24.40;45.80;;;;;;5095454;28;20442;-66
2021/03/07 05:46:18;;;;;;;2.97;2.77;;;24.40;45.80;;;;;;5095455;28;20436;-64
2021/03/07 05:48:44;;;;;;;3.07;2.87;;;24.40;45.80;;;;;;5095430;28;20483;-65
2021/03/07 05:51:14;;;;;;;2.73;2.53;;;24.40;45.80;;;;;;5095515;28;20847;-65
2021/03/07 05:53:42;;;;;;;3.20;3.00;;;24.40;45.80;;;;;;5095508;28;20440;-65
2021/03/07 05:56:10;;;;;;;3.37;3.17;;;24.40;45.80;;;;;;5095385;28;20478;-64
2021/03/07 05:58:37;;;;;;;3.53;3.33;;;24.40;45.70;;;;;;5095231;28;20470;-65
2021/03/07 06:01:04;;;;;;;2.93;2.73;;;24.40;45.80;;;;;;5095322;28;20450;-65
2021/03/07 06:03:30;;;;;;;3.40;3.20;;;24.50;45.80;;;;;;5095069;28;20508;-65
2021/03/07 06:05:57;;;;;;;3.40;3.10;;;24.40;45.80;;;;;;5095160;28;20439;-65
2021/03/07 06:08:24;;;;;;;4.00;3.60;;;24.40;45.80;;;;;;5095028;28;20484;-65
2021/03/07 06:10:51;;;;;;;4.17;3.80;;;24.40;46.20;;;;;;5094894;28;20451;-65
2021/03/07 06:13:18;;;;;;;3.37;3.17;;;24.40;45.70;;;;;;5095100;28;20443;-65
2021/03/07 06:15:45;;;;;;;3.50;3.27;;;24.40;45.80;;;;;;5094985;28;20443;-65
2021/03/07 06:18:13;;;;;;;3.10;2.90;;;24.40;45.70;;;;;;5094974;28;20443;-64
2021/03/07 06:20:40;;;;;;;3.10;2.90;;;24.40;45.70;;;;;;5094906;28;20514;-65
2021/03/07 06:23:06;;;;;;;3.53;3.33;;;24.40;45.70;;;;;;5094671;28;20435;-65
2021/03/07 06:25:45;;;;;;;3.63;3.33;;;24.40;45.80;;;;;;5094915;28;20441;-65
2021/03/07 06:28:23;;;;;;;2.77;2.50;;;24.50;46.40;;;;;;5094615;28;20522;-65
2021/03/07 06:30:50;;;;;;;2.97;2.77;;;24.40;45.80;;;;;;5094702;28;20439;-65
2021/03/07 06:33:30;;;;;;;3.20;3.00;;;24.40;45.80;;;;;;5094568;28;20461;-65
2021/03/07 06:36:15;;;;;;;3.60;3.40;;;24.40;45.90;;;;;;5094551;28;20435;-63
2021/03/07 06:38:45;;;;;;;3.20;3.00;;;24.40;45.90;;;;;;5094527;28;20442;-66
2021/03/07 06:41:16;;;;;;;2.97;2.67;;;24.40;45.80;;;;;;5094494;28;20450;-65
2021/03/07 06:43:42;;;;;;;2.97;2.77;;;24.40;46.00;;;;;;5094384;28;20439;-66
2021/03/07 06:46:26;;;;;;;3.43;3.23;;;24.40;45.80;;;;;;5094434;28;20442;-65
2021/03/07 06:48:53;;;;;;;3.40;3.20;;;24.40;46.60;;;;;;5094587;28;20479;-65
2021/03/07 06:51:26;;;;;;;3.20;3.00;;;24.40;45.90;;;;;;5094325;28;20443;-65
2021/03/07 06:53:52;;;;;;;2.97;2.77;;;24.40;46.30;;;;;;5094389;28;20431;-65
2021/03/07 06:56:42;;;;;;;3.87;3.53;;;24.40;45.80;;;;;;5093940;28;20482;-65
2021/03/07 06:59:09;;;;;;;3.07;2.87;;;24.40;45.80;;;;;;5094083;28;20995;-65
2021/03/07 07:01:39;;;;;;;2.90;2.70;;;24.40;46.40;;;;;;5094010;28;20467;-65
2021/03/07 07:04:05;;;;;;;3.00;2.80;;;24.40;45.90;;;;;;5094085;28;20439;-65
2021/03/07 07:06:33;;;;;;;2.97;2.77;;;24.40;45.90;;;;;;5093985;28;20439;-64
2021/03/07 07:09:01;;;;;;;3.13;2.93;;;24.40;46.00;;;;;;5093936;28;20881;-63
2021/03/07 07:11:27;;;;;;;3.00;2.80;;;24.50;46.10;;;;;;5093952;28;20442;-65
2021/03/07 07:13:54;;;;;;;3.37;3.17;;;24.40;46.10;;;;;;5093956;28;20443;-64
2021/03/07 07:16:22;;;;;;;3.07;2.87;;;24.40;45.90;;;;;;5093483;28;20449;-63
2021/03/07 07:18:49;;;;;;;3.43;3.23;;;24.40;45.90;;;;;;5093846;28;20442;-63
2021/03/07 07:21:17;;;;;;;3.07;2.87;;;24.50;46.20;;;;;;5093766;28;20444;-63
2021/03/07 07:23:44;;;;;;;3.13;2.93;;;24.50;46.10;;;;;;5093611;28;20449;-63
2021/03/07 07:26:10;;;;;;;3.03;2.83;;;24.50;46.10;;;;;;5093690;28;20497;-64
2021/03/07 07:28:37;;;;;;;2.63;2.43;;;24.50;46.10;;;;;;5093489;28;20512;-63
2021/03/07 07:31:10;;;;;;;3.03;2.83;;;24.50;46.10;;;;;;5093594;28;20440;-63
2021/03/07 07:33:50;;;;;;;3.30;2.90;;;24.50;46.10;;;;;;5093592;28;20450;-64
2021/03/07 07:36:24;;;;;;;3.40;3.10;;;24.50;46.10;;;;;;5093820;28;20439;-62
2021/03/07 07:38:54;;;;;;;3.00;2.80;;;24.50;46.00;;;;;;5093605;28;20442;-63
2021/03/07 07:41:28;;;;;;;2.77;2.57;;;24.50;46.00;;;;;;5093423;28;20440;-63
2021/03/07 07:43:57;;;;;;;3.60;3.30;;;24.50;45.90;;;;;;5093392;28;20442;-63
2021/03/07 07:46:24;;;;;;;3.30;3.10;;;24.50;46.00;;;;;;5093274;28;20448;-63
2021/03/07 07:48:50;;;;;;;3.23;3.03;;;24.50;45.90;;;;;;5093356;28;20553;-63
2021/03/07 07:51:38;;;;;;;3.10;2.90;;;24.50;46.10;;;;;;5093399;28;20464;-63
2021/03/07 07:54:06;;;;;;;2.93;2.73;;;24.50;46.10;;;;;;5093501;28;20802;-64
2021/03/07 07:56:38;;;;;;;3.17;2.97;;;24.50;46.00;;;;;;5093085;28;20470;-63
2021/03/07 07:59:06;;;;;;;3.10;2.90;;;24.50;45.90;;;;;;5093290;28;20459;-63
2021/03/07 08:01:57;;;;;;;2.73;2.53;;;24.50;46.00;;;;;;5093193;28;20493;-63
2021/03/07 08:04:36;;;;;;;3.13;2.93;;;24.50;46.00;;;;;;5093451;28;20439;-63
2021/03/07 08:07:06;;;;;;;2.87;2.67;;;24.50;46.10;;;;;;5093371;28;20444;-63
2021/03/07 08:09:42;;;;;;;3.70;3.50;;;24.50;46.00;;;;;;5093352;28;20487;-63
2021/03/07 08:12:47;;;;;;;3.37;3.17;;;24.50;46.00;;;;;;5092979;28;20446;-63
2021/03/07 08:15:42;;;;;;;3.67;3.37;;;24.50;46.10;;;;;;5093233;28;20484;-63
2021/03/07 08:18:10;;;;;;;3.30;3.10;;;24.50;46.10;;;;;;5093023;28;20443;-62
2021/03/07 08:21:03;;;;;;;3.13;2.93;;;24.50;46.10;;;;;;5093079;28;20528;-63
2021/03/07 08:23:30;;;;;;;3.33;3.03;;;24.50;46.10;;;;;;5093024;28;20450;-62
2021/03/07 08:25:57;;;;;;;3.27;3.07;;;24.50;46.10;;;;;;5093074;28;20435;-63
2021/03/07 08:28:41;;;;;;;2.90;2.70;;;24.50;45.90;;;;;;5095286;28;20487;-66
2021/03/07 08:31:27;;;;;;;3.07;2.87;;;24.50;45.90;;;;;;5097010;28;20451;-66
2021/03/07 08:33:54;;;;;;;3.07;2.87;;;24.50;45.90;;;;;;5097006;28;20495;-66
2021/03/07 08:36:23;;;;;;;2.53;2.43;;;24.60;46.10;;;;;;5097035;28;20948;-66
2021/03/07 08:39:14;;;;;;;3.30;3.00;;;24.50;46.00;;;;;;5096821;28;20444;-67
2021/03/07 08:42:03;;;;;;;3.00;2.80;;;24.60;45.90;;;;;;5096719;28;20496;-67
2021/03/07 08:44:30;;;;;;;3.07;2.77;;;24.60;46.20;;;;;;5096823;28;20803;-66
2021/03/07 08:46:57;;;;;;;3.57;3.37;;;24.60;46.20;;;;;;5096580;28;20522;-64
2021/03/07 08:49:26;;;;;;;3.63;3.00;;;24.60;46.20;;;;;;5096459;28;20483;-66
2021/03/07 08:51:59;;;;;;;3.40;3.20;;;24.60;46.20;;;;;;5096482;28;20840;-66
2021/03/07 08:54:29;;;;;;;4.47;4.07;;;24.70;46.50;;;;;;5096586;28;20443;-66
2021/03/07 08:56:56;;;;;;;3.17;2.97;;;24.70;46.40;;;;;;5096439;28;20875;-65
2021/03/07 08:59:28;;;;;;;3.33;3.03;;;24.70;46.20;;;;;;5096513;28;20519;-63
2021/03/07 09:01:55;;;;;;;3.10;2.90;;;24.70;46.20;;;;;;5096338;28;21029;-63
2021/03/07 09:04:22;;;;;;;3.43;3.13;;;24.70;46.20;;;;;;5096524;28;20440;-63
2021/03/07 09:06:52;;;;;;;3.30;3.10;;;24.70;46.00;;;;;;5096588;28;20785;-62
2021/03/07 09:09:20;;;;;;;3.37;3.00;;;24.70;46.20;;;;;;5096270;28;20487;-65
2021/03/07 09:11:49;;;;;;;3.30;3.10;;;24.80;46.20;;;;;;5096178;28;20445;-63
2021/03/07 09:14:15;;;;;;;3.57;3.37;;;24.80;46.10;;;;;;5096049;28;20467;-62
2021/03/07 09:16:43;;;;;;;3.00;2.80;;;24.80;46.20;;;;;;5095994;28;20496;-63
2021/03/07 09:19:20;;;;;;;3.23;3.03;;;24.80;46.20;;;;;;5096068;28;20440;-63
2021/03/07 09:21:46;;;;;;;3.43;3.23;;;24.80;46.10;;;;;;5095876;28;21010;-63
2021/03/07 09:24:14;;;;;;;3.00;2.80;;;24.80;46.20;;;;;;5095994;28;20436;-64
2021/03/07 09:26:40;;;;;;;2.70;2.50;;;24.80;46.00;;;;;;5096061;28;20438;-63
2021/03/07 09:29:06;;;;;;;2.90;2.70;;;24.80;46.10;;;;;;5095665;28;20490;-65
2021/03/07 09:31:34;;;;;;;2.90;2.70;;;24.80;46.20;;;;;;5095799;28;20942;-65
2021/03/07 09:34:03;;;;;;;2.93;2.73;;;24.80;46.20;;;;;;5095799;28;20800;-66
2021/03/07 09:36:32;;;;;;;2.33;2.13;;;24.80;46.10;;;;;;5095772;28;20435;-66
2021/03/07 09:39:00;;;;;;;3.00;2.80;;;24.80;45.90;;;;;;5095363;28;20439;-65
2021/03/07 09:41:35;;;;;;;2.90;2.70;;;24.80;46.00;;;;;;5095448;28;20452;-66
2021/03/07 09:44:04;;;;;;;2.70;2.50;;;24.80;45.90;;;;;;5095538;28;20501;-65
2021/03/07 09:46:30;;;;;;;2.80;2.50;;;24.80;46.00;;;;;;5095486;28;20467;-65
2021/03/07 09:48:59;;;;;;;2.50;2.17;;;24.80;46.00;;;;;;5095369;28;20482;-65
2021/03/07 09:51:30;;;;;;;2.40;2.20;;;24.80;46.20;;;;;;5095577;28;20444;-66
2021/03/07 09:53:56;;;;;;;2.43;2.23;;;24.80;46.10;;;;;;5095524;28;20436;-64
2021/03/07 09:56:28;;;;;;;1.90;1.80;;;24.80;46.10;;;;;;5095148;28;20475;-65
2021/03/07 09:59:08;;;;;;;2.83;2.63;;;24.80;46.00;;;;;;5095300;28;20509;-63
2021/03/07 10:01:44;;;;;;;3.63;2.10;;;24.80;46.00;;;;;;5095156;28;20446;-66
2021/03/07 10:04:29;;;;;;;2.30;2.20;;;24.80;46.00;;;;;;5095270;28;20448;-65
2021/03/07 10:06:56;;;;;;;2.30;2.10;;;24.80;46.10;;;;;;5095255;28;20444;-65
2021/03/07 10:09:22;;;;;;;2.50;2.30;;;24.80;46.10;;;;;;5095069;28;20506;-63
2021/03/07 10:12:00;;;;;;;2.60;2.40;;;24.80;46.00;;;;;;5091663;28;20436;-61
2021/03/07 10:14:29;;;;;;;2.53;2.33;;;24.80;46.00;;;;;;5086061;28;20435;-62
2021/03/07 10:16:57;;;;;;;1.90;1.80;;;24.80;46.10;;;;;;5075086;28;20436;-63
2021/03/07 10:19:23;;;;;;;1.90;1.80;;;24.80;46.20;;;;;;5074604;28;20444;-62
2021/03/07 10:21:56;;;;;;;2.70;2.13;;;24.80;46.10;;;;;;5088437;28;20435;-62
2021/03/07 10:24:23;;;;;;;2.23;2.03;;;24.80;46.00;;;;;;5089347;28;20442;-62
2021/03/07 10:26:51;;;;;;;2.03;1.93;;;24.80;46.00;;;;;;5092027;28;20962;-63
2021/03/07 10:29:36;;;;;;;2.10;2.00;;;25.00;46.00;;;;;;5080874;28;20495;-63
2021/03/07 10:32:09;;;;;;;2.47;1.93;;;24.80;45.90;;;;;;5074264;28;20445;-63
2021/03/07 10:34:38;;;;;;;2.30;2.10;;;24.80;45.80;;;;;;5074319;28;20447;-63
2021/03/07 10:37:05;;;;;;;1.97;1.87;;;24.80;46.20;;;;;;5074321;28;20444;-63
2021/03/07 10:39:32;;;;;;;2.30;2.10;;;24.80;46.00;;;;;;5074247;28;20452;-63
2021/03/07 10:42:19;;;;;;;3.40;2.10;;;24.80;45.80;;;;;;5074077;28;20448;-63
2021/03/07 10:44:46;;;;;;;1.70;1.60;;;24.80;45.80;;;;;;5069439;28;20463;-61
2021/03/07 10:47:17;;;;;;;2.13;1.93;;;24.80;45.90;;;;;;5074237;28;20432;-63
2021/03/07 10:49:46;;;;;;;1.80;1.70;;;24.80;45.80;;;;;;5073561;28;20491;-63
2021/03/07 10:52:12;;;;;;;1.97;1.87;;;24.90;45.90;;;;;;5073857;28;20502;-63
2021/03/07 10:54:39;;;;;;;2.70;1.83;;;24.80;45.60;;;;;;5074063;28;20777;-61
2021/03/07 10:57:08;;;;;;;5.60;2.10;;;24.80;45.90;;;;;;5074335;28;20460;-63
2021/03/07 10:59:34;;;;;;;3.10;2.13;;;24.80;46.40;;;;;;5082145;28;20444;-63
2021/03/07 11:02:04;;;;;;;2.57;2.37;;;24.80;46.50;;;;;;5073667;28;20525;-63
2021/03/07 11:04:30;;;;;;;2.27;2.07;;;24.80;47.10;;;;;;5074139;28;20784;-63
2021/03/07 11:06:56;;;;;;;2.50;2.00;;;24.80;47.50;;;;;;5073875;28;20939;-63
2021/03/07 11:09:24;;;;;;;2.20;2.10;;;24.80;47.60;;;;;;5073694;28;20487;-64
2021/03/07 11:11:50;;;;;;;4.97;2.40;;;24.80;47.60;;;;;;5073629;28;20476;-63
2021/03/07 11:14:16;;;;;;;4.10;2.60;;;24.80;47.60;;;;;;5073685;28;20800;-64
2021/03/07 11:16:42;;;;;;;2.40;2.23;;;24.80;47.60;;;;;;5073675;28;20445;-64
2021/03/07 11:19:09;;;;;;;4.23;2.30;;;24.80;47.60;;;;;;5073542;28;20504;-64
2021/03/07 11:21:36;;;;;;;1.90;1.80;;;24.80;47.60;;;;;;5073508;28;20447;-64
2021/03/07 11:24:03;;;;;;;1.73;1.63;;;24.80;47.60;;;;;;5073372;28;20431;-64
2021/03/07 11:26:29;;;;;;;2.80;2.60;;;24.80;47.60;;;;;;5073573;28;20436;-64
2021/03/07 11:28:55;;;;;;;3.50;2.00;;;24.80;47.60;;;;;;5073453;28;20481;-64
2021/03/07 11:31:21;;;;;;;1.90;1.80;;;24.80;47.60;;;;;;5073337;28;20443;-64
2021/03/07 11:33:48;;;;;;;1.83;1.73;;;24.80;47.60;;;;;;5073274;28;20444;-64
2021/03/07 11:36:15;;;;;;;2.60;2.40;;;24.80;47.60;;;;;;5073340;28;20541;-64
2021/03/07 11:38:41;;;;;;;1.80;1.43;;;24.80;47.50;;;;;;5073279;28;20445;-64
2021/03/07 11:41:07;;;;;;;2.00;1.90;;;24.80;47.50;;;;;;5073183;28;20443;-64
2021/03/07 11:43:34;;;;;;;2.77;2.10;;;24.80;47.50;;;;;;5073199;28;20448;-64
2021/03/07 11:46:00;;;;;;;1.70;1.60;;;24.80;47.50;;;;;;5073198;28;20443;-64
2021/03/07 11:48:28;;;;;;;2.10;1.70;;;24.80;47.50;;;;;;5073078;28;20484;-64
2021/03/07 11:50:54;;;;;;;3.93;2.10;;;24.80;47.50;;;;;;5073247;28;20451;-64
2021/03/07 11:53:21;;;;;;;1.90;1.80;;;24.80;47.50;;;;;;5073082;28;20938;-64
2021/03/07 11:55:48;;;;;;;1.90;1.80;;;24.80;47.50;;;;;;5072927;28;20471;-64
2021/03/07 11:58:14;;;;;;;1.97;1.87;;;24.80;47.50;;;;;;5073070;28;20468;-64
2021/03/07 12:00:40;;;;;;;2.30;2.10;;;24.80;47.40;;;;;;5073142;28;20440;-64
2021/03/07 12:03:06;;;;;;;1.87;1.77;;;24.80;47.40;;;;;;5079384;28;20437;-64
2021/03/07 12:05:33;;;;;;;2.27;2.07;;;24.80;47.40;;;;;;5079722;28;20440;-64
2021/03/07 12:07:59;;;;;;;5.73;1.77;;;24.80;47.40;;;;;;5079520;28;20441;-64
2021/03/07 12:10:26;;;;;;;2.70;1.50;;;24.70;47.40;;;;;;5079595;28;21003;-64
2021/03/07 12:12:53;;;;;;;1.63;1.53;;;24.70;47.40;;;;;;5079649;28;20444;-64
2021/03/07 12:15:19;;;;;;;1.93;1.83;;;24.90;47.50;;;;;;5079460;28;20798;-64
2021/03/07 12:17:46;;;;;;;1.53;1.43;;;24.80;47.40;;;;;;5079653;28;20440;-64
2021/03/07 12:20:17;;;;;;;1.30;1.20;;;24.80;47.40;;;;;;5079599;28;20444;-64
2021/03/07 12:22:45;;;;;;;1.37;1.27;;;24.80;47.40;;;;;;5096772;28;20427;-64
2021/03/07 12:25:12;;;;;;;1.63;1.53;;;24.80;47.40;;;;;;5099850;28;20435;-64
2021/03/07 12:27:39;;;;;;;1.30;1.20;;;24.80;47.40;;;;;;5099698;28;20455;-64
2021/03/07 12:30:07;;;;;;;1.50;1.30;;;24.80;47.40;;;;;;5099740;28;20838;-64
2021/03/07 12:32:33;;;;;;;1.87;1.77;;;24.80;47.40;;;;;;5099895;28;20829;-64
2021/03/07 12:34:59;;;;;;;1.40;1.30;;;24.80;47.40;;;;;;5099710;28;20495;-64
2021/03/07 12:37:26;;;;;;;1.90;1.50;;;24.80;47.40;;;;;;5099698;28;20431;-64
2021/03/07 12:39:52;;;;;;;1.77;1.67;;;24.80;47.50;;;;;;5099679;28;20439;-64
2021/03/07 12:42:18;;;;;;;1.53;1.43;;;24.80;47.50;;;;;;5099615;28;20451;-64
2021/03/07 12:44:45;;;;;;;1.20;1.10;;;24.80;47.40;;;;;;5099775;28;20520;-64
2021/03/07 12:47:12;;;;;;;1.47;1.27;;;24.80;47.50;;;;;;5099511;28;20799;-64
2021/03/07 12:49:38;;;;;;;2.73;1.70;;;24.80;47.40;;;;;;5099505;28;20491;-63
2021/03/07 12:52:05;;;;;;;1.40;1.30;;;24.80;47.40;;;;;;5092486;28;20557;-63
2021/03/07 12:57:59;;;;;;;1.80;1.37;;;24.90;47.50;;;;;;5074307;28;20461;-65
2021/03/07 13:00:30;;;;;;;3.77;1.70;;;24.80;47.20;;;;;;5095393;28;20914;-63